Latest Weather Observations for Banana Bank

IDQ60801

Issued at 6:32 pm EST Sunday 28 August 2016 (issued every 30 minutes, with the page automatically refreshed every 10 minutes)

About weather observations | Map of weather stations | Latest weather observations for QLD | Other Formats
Station Details ID: 040925 Name: BANANA BANK NORTH BEACON Lat: -27.53 Lon: 153.33 Height: 7.0 m
Data from the previous 72 hours. | See also: Recent months for locations in Queensland
Date/Time
EST
Temp
°C
App
Temp
°C
Dew
Point
°C
Rel
Hum
%
Delta-T
°C
Wind Press
QNH
hPa
Press
MSL
hPa
Rain since
9am
mm
Dir  Spd
km/h
Gust
km/h
Spd
kts
Gust
kts
28/06:00pm - - - - - E 9 11 5 6 - - -
28/05:30pm - - - - - E 13 17 7 9 - - -
28/05:00pm - - - - - E 13 15 7 8 - - -
28/04:30pm - - - - - NE 9 11 5 6 - - -
28/04:00pm - - - - - N 11 15 6 8 - - -
28/03:30pm - - - - - E 9 9 5 5 - - -
28/03:00pm - - - - - ESE 9 13 5 7 - - -
28/02:30pm - - - - - ESE 9 11 5 6 - - -
28/02:00pm - - - - - ESE 11 13 6 7 - - -
28/01:30pm - - - - - SSE 6 9 3 5 - - -
28/01:00pm - - - - - SSE 6 6 3 3 - - -
28/12:30pm - - - - - SE 4 7 2 4 - - -
28/12:00pm - - - - - SSW 4 9 2 5 - - -
28/11:30am - - - - - S 6 11 3 6 - - -
28/11:00am - - - - - SW 6 7 3 4 - - -
28/10:30am - - - - - S 9 13 5 7 - - -
28/10:00am - - - - - SSW 9 13 5 7 - - -
28/09:30am - - - - - SSW 11 13 6 7 - - -
28/09:00am - - - - - SW 13 15 7 8 - - -
28/08:30am - - - - - WSW 11 17 6 9 - - -
28/08:00am - - - - - WSW 13 19 7 10 - - -
28/07:30am - - - - - SW 17 19 9 10 - - -
28/07:00am - - - - - WSW 13 19 7 10 - - -
28/06:30am - - - - - SW 15 17 8 9 - - -
28/06:00am - - - - - SW 15 20 8 11 - - -
28/05:30am - - - - - WSW 17 22 9 12 - - -
28/05:00am - - - - - SW 20 24 11 13 - - -
28/04:30am - - - - - SW 19 22 10 12 - - -
28/04:00am - - - - - WSW 24 30 13 16 - - -
28/03:30am - - - - - WSW 17 24 9 13 - - -
28/03:00am - - - - - WSW 9 13 5 7 - - -
28/02:30am - - - - - WSW 13 17 7 9 - - -
28/02:00am - - - - - WSW 13 20 7 11 - - -
28/01:30am - - - - - SW 13 15 7 8 - - -
28/01:00am - - - - - SW 15 19 8 10 - - -
28/12:30am - - - - - SSW 15 17 8 9 - - -
28/12:00am - - - - - SSW 15 19 8 10 - - -
 
Date/Time
EST
Temp
°C
App
Temp
°C
Dew
Point
°C
Rel
Hum
%
Delta-T
°C
Wind Press
QNH
hPa
Press
MSL
hPa
Rain since
9am
mm
Dir  Spd
km/h
Gust
km/h
Spd
kts
Gust
kts
27/11:30pm - - - - - S 15 19 8 10 - - -
27/11:00pm - - - - - SSW 13 15 7 8 - - -
27/10:30pm - - - - - SSW 17 20 9 11 - - -
27/10:00pm - - - - - S 22 24 12 13 - - -
27/09:30pm - - - - - S 17 20 9 11 - - -
27/09:00pm - - - - - S 17 20 9 11 - - -
27/08:30pm - - - - - S 20 24 11 13 - - -
27/08:00pm - - - - - S 15 20 8 11 - - -
27/07:30pm - - - - - SSW 7 15 4 8 - - -
27/07:00pm - - - - - SE 4 4 2 2 - - -
27/06:30pm - - - - - SE 7 9 4 5 - - -
27/06:00pm - - - - - ESE 11 13 6 7 - - -
27/05:30pm - - - - - SE 15 19 8 10 - - -
27/05:00pm - - - - - SE 17 20 9 11 - - -
27/04:30pm - - - - - ESE 15 19 8 10 - - -
27/04:00pm - - - - - SSW 11 17 6 9 - - -
27/03:30pm - - - - - SSW 13 19 7 10 - - -
27/03:00pm - - - - - SW 13 20 7 11 - - -
27/02:30pm - - - - - SSW 17 22 9 12 - - -
27/02:00pm - - - - - WSW 9 15 5 8 - - -
27/01:30pm - - - - - WSW 13 19 7 10 - - -
27/01:00pm - - - - - WSW 17 24 9 13 - - -
27/12:30pm - - - - - SW 13 19 7 10 - - -
27/12:00pm - - - - - SW 11 17 6 9 - - -
27/11:30am - - - - - SSW 7 15 4 8 - - -
27/11:00am - - - - - WSW 9 17 5 9 - - -
27/10:30am - - - - - SW 11 19 6 10 - - -
27/10:00am - - - - - SW 7 11 4 6 - - -
27/09:30am - - - - - SW 13 20 7 11 - - -
27/09:00am - - - - - SW 13 17 7 9 - - -
27/08:30am - - - - - SW 19 24 10 13 - - -
27/08:00am - - - - - WSW 17 24 9 13 - - -
27/07:30am - - - - - WSW 11 17 6 9 - - -
27/07:00am - - - - - WSW 15 22 8 12 - - -
27/06:30am - - - - - WSW 15 22 8 12 - - -
27/06:00am - - - - - WSW 17 24 9 13 - - -
27/05:30am - - - - - WSW 15 24 8 13 - - -
27/05:00am - - - - - WSW 11 19 6 10 - - -
27/04:30am - - - - - WSW 11 17 6 9 - - -
27/04:00am - - - - - WSW 11 17 6 9 - - -
27/03:30am - - - - - W 13 17 7 9 - - -
27/03:00am - - - - - SSW 13 17 7 9 - - -
27/02:30am - - - - - SSW 15 20 8 11 - - -
27/02:00am - - - - - SSW 17 24 9 13 - - -
27/01:30am - - - - - S 20 26 11 14 - - -
27/01:00am - - - - - SW 11 20 6 11 - - -
27/12:30am - - - - - SW 17 20 9 11 - - -
27/12:00am - - - - - WSW 15 20 8 11 - - -
 
Date/Time
EST
Temp
°C
App
Temp
°C
Dew
Point
°C
Rel
Hum
%
Delta-T
°C
Wind Press
QNH
hPa
Press
MSL
hPa
Rain since
9am
mm
Dir  Spd
km/h
Gust
km/h
Spd
kts
Gust
kts
26/11:30pm - - - - - WSW 20 30 11 16 - - -
26/11:00pm - - - - - WSW 15 26 8 14 - - -
26/10:30pm - - - - - SSW 19 30 10 16 - - -
26/10:00pm - - - - - W 20 28 11 15 - - -
26/09:30pm - - - - - WSW 20 30 11 16 - - -
26/09:00pm - - - - - SSW 7 9 4 5 - - -
26/08:30pm - - - - - SSW 19 26 10 14 - - -
26/08:00pm - - - - - WSW 15 22 8 12 - - -
26/07:30pm - - - - - ESE 4 6 2 3 - - -
26/07:00pm - - - - - CALM 0 0 0 0 - - -
26/06:30pm - - - - - CALM 0 0 0 0 - - -
26/06:00pm - - - - - SSW 4 6 2 3 - - -
26/05:30pm - - - - - ESE 4 6 2 3 - - -
26/05:00pm - - - - - E 6 9 3 5 - - -
26/04:30pm - - - - - CALM 0 2 0 1 - - -
26/04:00pm - - - - - CALM 0 0 0 0 - - -
26/03:30pm - - - - - ESE 7 7 4 4 - - -
26/03:00pm - - - - - ESE 4 6 2 3 - - -
26/02:30pm - - - - - ENE 6 6 3 3 - - -
26/02:00pm - - - - - E 6 6 3 3 - - -
26/01:30pm - - - - - CALM 0 4 0 2 - - -
26/01:00pm - - - - - ESE 2 4 1 2 - - -
26/12:30pm - - - - - E 2 4 1 2 - - -
26/12:00pm - - - - - CALM 0 2 0 1 - - -
26/11:30am - - - - - SSW 4 7 2 4 - - -
26/11:00am - - - - - SSW 7 9 4 5 - - -
26/10:30am - - - - - SW 13 15 7 8 - - -
26/10:00am - - - - - SW 15 20 8 11 - - -
26/09:30am - - - - - SW 17 20 9 11 - - -
26/09:00am - - - - - SW 19 24 10 13 - - -
26/08:30am - - - - - SSW 7 9 4 5 - - -
26/08:00am - - - - - SW 13 17 7 9 - - -
26/07:30am - - - - - SW 7 13 4 7 - - -
26/07:00am - - - - - WSW 9 13 5 7 - - -
26/06:30am - - - - - WSW 6 11 3 6 - - -
26/06:00am - - - - - WSW 9 13 5 7 - - -
26/05:30am - - - - - SW 15 19 8 10 - - -
26/05:00am - - - - - SW 17 20 9 11 - - -
26/04:30am - - - - - WSW 19 24 10 13 - - -
26/04:00am - - - - - WSW 20 28 11 15 - - -
26/03:30am - - - - - WSW 17 28 9 15 - - -
26/03:00am - - - - - WSW 19 28 10 15 - - -
26/02:30am - - - - - WSW 19 26 10 14 - - -
26/02:00am - - - - - WSW 19 30 10 16 - - -
26/01:30am - - - - - WSW 17 24 9 13 - - -
26/01:00am - - - - - WSW 19 28 10 15 - - -
26/12:30am - - - - - SW 19 24 10 13 - - -
26/12:00am - - - - - WSW 19 30 10 16 - - -
 
Date/Time
EST
Temp
°C
App
Temp
°C
Dew
Point
°C
Rel
Hum
%
Delta-T
°C
Wind Press
QNH
hPa
Press
MSL
hPa
Rain since
9am
mm
Dir  Spd
km/h
Gust
km/h
Spd
kts
Gust
kts
25/11:30pm - - - - - WSW 19 28 10 15 - - -
25/11:00pm - - - - - WSW 20 33 11 18 - - -
25/10:30pm - - - - - W 24 33 13 18 - - -
25/10:00pm - - - - - W 22 30 12 16 - - -
25/09:30pm - - - - - W 22 28 12 15 - - -
25/09:00pm - - - - - W 24 32 13 17 - - -
25/08:30pm - - - - - W 26 32 14 17 - - -
25/08:00pm - - - - - W 24 32 13 17 - - -
25/07:30pm - - - - - W 28 33 15 18 - - -
25/07:00pm - - - - - W 28 35 15 19 - - -

Other Formats:

Comma delimited format used in spreadsheet applications
http://www.bom.gov.au/fwo/IDQ60801/IDQ60801.94591.axf

JavaScript Object Notation format (JSON) in row-major order
http://www.bom.gov.au/fwo/IDQ60801/IDQ60801.94591.json